Costa Adriatica — IFQQ — position and weather

sailwx.info

Track history (hours):
 
Tides and Currents Weather Stations Pressure Air Temp Water Temp Dewpoint Dewpoint Depression Visibility Wind Speed Wind Dir Waves Ship Positions

Costa Adriatica

Last reported at 2018-Oct-07 12:58 UTC. Time now 2018-Dec-12 13:50 UTC.
Position N 45°37' E 012°59'.
Warning: this ship's position is months out of date.

Length 28 m.

Type: Passenger vessel. MMSI: 247194400.

Date/timePositionNaut miles runAvg speedWind from/ knotsBaromVisibWave heightAir tempDewpointWater temp
2018-Oct-07 12:58N 45°37' E 012°59'  
2018-Oct-03 17:38N 45°35' E 012°52'1 7.8
2018-Oct-03 17:30N 45°34' E 012°51'1319.0
2018-Oct-03 16:49N 45°28' E 012°35'10 9.6
2018-Oct-03 15:49N 45°25' E 012°22'1 2.4
2018-Oct-03 15:31N 45°26' E 012°21'0 0.0
2018-Oct-03 15:03N 45°26' E 012°21'0 0.0
2018-Oct-03 15:00N 45°26' E 012°21'0 0.0
2018-Oct-03 14:31N 45°26' E 012°21'0 0.0
2018-Oct-03 14:04N 45°26' E 012°21'0 0.0
2018-Oct-03 14:01N 45°26' E 012°21'0 0.0
2018-Oct-03 13:31N 45°26' E 012°21'3 1.1
2018-Oct-03 10:50N 45°28' E 012°25'0 0.0
2018-Oct-03 10:31N 45°28' E 012°25'1 3.1
2018-Oct-03 10:03N 45°29' E 012°25'0 0.3
2018-Oct-03 10:00N 45°29' E 012°25'0 0.0
2018-Oct-03 09:30N 45°29' E 012°25'0 0.0
2018-Oct-03 09:03N 45°29' E 012°25'0 0.0
2018-Oct-03 09:01N 45°29' E 012°25'0 0.0
2018-Oct-03 08:30N 45°29' E 012°25'2 4.3
2018-Oct-03 08:02N 45°27' E 012°26'4 6.6
2018-Oct-03 07:26N 45°27' E 012°31'719.7
2018-Oct-03 07:03N 45°30' E 012°41'120.0
2018-Oct-03 07:00N 45°31' E 012°42'  
2018-Sep-27 13:49N 45°26' E 012°23'1 4.5
2018-Sep-27 13:30N 45°26' E 012°21'0 0.0
2018-Sep-27 13:03N 45°26' E 012°21'0 0.0
2018-Sep-27 13:00N 45°26' E 012°21'  
Track history (hours):
 
Tides and Currents Weather Stations Pressure Air Temp Water Temp Dewpoint Dewpoint Depression Visibility Wind Speed Wind Dir Waves Ship Positions

Costa Adriatica

Last reported at 2018-Oct-07 12:58 UTC. Time now 2018-Dec-12 13:50 UTC.
Position N 45°37' E 012°59'.
Warning: this ship's position is months out of date.

Length 28 m.

Type: Passenger vessel. MMSI: 247194400.

Date/timePositionNaut miles runAvg speedWind from/ knotsBaromVisibWave heightAir tempDewpointWater temp
2018-Oct-07 12:58N 45°37' E 012°59'  
2018-Oct-03 17:38N 45°35' E 012°52'1 7.8
2018-Oct-03 17:30N 45°34' E 012°51'1319.0
2018-Oct-03 16:49N 45°28' E 012°35'10 9.6
2018-Oct-03 15:49N 45°25' E 012°22'1 2.4
2018-Oct-03 15:31N 45°26' E 012°21'0 0.0
2018-Oct-03 15:03N 45°26' E 012°21'0 0.0
2018-Oct-03 15:00N 45°26' E 012°21'0 0.0
2018-Oct-03 14:31N 45°26' E 012°21'0 0.0
2018-Oct-03 14:04N 45°26' E 012°21'0 0.0
2018-Oct-03 14:01N 45°26' E 012°21'0 0.0
2018-Oct-03 13:31N 45°26' E 012°21'3 1.1
2018-Oct-03 10:50N 45°28' E 012°25'0 0.0
2018-Oct-03 10:31N 45°28' E 012°25'1 3.1
2018-Oct-03 10:03N 45°29' E 012°25'0 0.3
2018-Oct-03 10:00N 45°29' E 012°25'0 0.0
2018-Oct-03 09:30N 45°29' E 012°25'0 0.0
2018-Oct-03 09:03N 45°29' E 012°25'0 0.0
2018-Oct-03 09:01N 45°29' E 012°25'0 0.0
2018-Oct-03 08:30N 45°29' E 012°25'2 4.3
2018-Oct-03 08:02N 45°27' E 012°26'4 6.6
2018-Oct-03 07:26N 45°27' E 012°31'719.7
2018-Oct-03 07:03N 45°30' E 012°41'120.0
2018-Oct-03 07:00N 45°31' E 012°42'  
2018-Sep-27 13:49N 45°26' E 012°23'1 4.5
2018-Sep-27 13:30N 45°26' E 012°21'0 0.0
2018-Sep-27 13:03N 45°26' E 012°21'0 0.0
2018-Sep-27 13:00N 45°26' E 012°21'  

Dump ship's entire track history